Time;durP1;ratioP1;P1;durP2;ratioP2;P2;SDS_P1;SDS_P2;PMS_P1;PMS_P2;Temp;Humidity;BMP_temperature;BMP_pressure;BME280_temperature;BME280_humidity;BME280_pressure;Samples;Min_cycle;Max_cycle;Signal;HPM_P1;HPM_P2
2023/10/26 00:00:50;;;;;;;18.10;11.17;;;;;;;;;;5035795;28;20542;-72
2023/10/26 00:03:15;;;;;;;22.58;12.38;;;;;;;;;;5053411;28;20017;-72
2023/10/26 00:05:41;;;;;;;21.37;12.83;;;;;;;;;;5053333;28;20021;-72
2023/10/26 00:08:06;;;;;;;21.25;11.95;;;;;;;;;;5053391;28;20148;-72
2023/10/26 00:10:31;;;;;;;19.70;11.87;;;;;;;;;;5053364;28;20025;-72
2023/10/26 00:12:56;;;;;;;20.33;12.43;;;;;;;;;;5035113;28;20323;-72
2023/10/26 00:15:21;;;;;;;22.57;12.43;;;;;;;;;;5053233;28;20818;-71
2023/10/26 00:17:47;;;;;;;20.20;12.37;;;;;;;;;;5053285;28;20251;-72
2023/10/26 00:20:12;;;;;;;19.55;12.05;;;;;;;;;;5053215;28;20370;-72
2023/10/26 00:22:37;;;;;;;28.73;12.17;;;;;;;;;;5053301;28;20024;-72
2023/10/26 00:25:03;;;;;;;24.93;12.33;;;;;;;;;;5035219;28;20255;-72
2023/10/26 00:27:28;;;;;;;24.15;13.57;;;;;;;;;;5053212;28;20287;-72
2023/10/26 00:29:53;;;;;;;19.45;12.32;;;;;;;;;;5052960;28;20099;-72
2023/10/26 00:32:18;;;;;;;20.70;12.30;;;;;;;;;;5034389;28;20027;-72
2023/10/26 00:34:43;;;;;;;20.80;12.53;;;;;;;;;;5052977;28;20536;-71
2023/10/26 00:37:09;;;;;;;24.13;12.70;;;;;;;;;;5053199;28;20346;-72
2023/10/26 00:39:34;;;;;;;22.13;12.70;;;;;;;;;;5052958;28;20021;-72
2023/10/26 00:41:59;;;;;;;21.98;12.25;;;;;;;;;;5052949;28;20074;-72
2023/10/26 00:44:25;;;;;;;20.10;12.57;;;;;;;;;;5052950;28;20096;-72
2023/10/26 00:46:51;;;;;;;21.60;12.73;;;;;;;;;;5052979;28;20312;-72
2023/10/26 00:49:17;;;;;;;22.35;12.85;;;;;;;;;;5052831;28;20263;-72
2023/10/26 00:51:44;;;;;;;20.65;13.23;;;;;;;;;;5052862;28;20550;-72
2023/10/26 00:54:10;;;;;;;19.08;12.80;;;;;;;;;;5052960;28;20108;-72
2023/10/26 00:56:35;;;;;;;18.48;12.20;;;;;;;;;;5052950;28;20476;-72
2023/10/26 00:59:01;;;;;;;19.67;12.20;;;;;;;;;;5052861;28;20045;-72
2023/10/26 01:01:27;;;;;;;20.83;12.55;;;;;;;;;;5052781;28;20491;-72
2023/10/26 01:03:53;;;;;;;19.33;12.93;;;;;;;;;;5052952;28;20021;-72
2023/10/26 01:06:18;;;;;;;22.45;12.70;;;;;;;;;;5052904;28;20465;-72
2023/10/26 01:08:43;;;;;;;19.60;12.63;;;;;;;;;;5052774;28;20025;-72
2023/10/26 01:11:09;;;;;;;23.87;13.63;;;;;;;;;;5052749;28;20626;-71
2023/10/26 01:13:34;;;;;;;19.85;13.13;;;;;;;;;;5034588;28;20295;-71
2023/10/26 01:15:59;;;;;;;19.70;12.65;;;;;;;;;;5052566;28;20469;-71
2023/10/26 01:18:24;;;;;;;19.13;11.50;;;;;;;;;;5034667;28;20048;-71
2023/10/26 01:20:49;;;;;;;19.13;11.87;;;;;;;;;;5034675;28;20380;-71
2023/10/26 01:23:15;;;;;;;18.97;12.43;;;;;;;;;;5052702;28;20267;-71
2023/10/26 01:25:40;;;;;;;19.67;12.47;;;;;;;;;;5052642;28;20545;-71
2023/10/26 01:28:07;;;;;;;21.27;12.50;;;;;;;;;;5052589;28;20266;-71
2023/10/26 01:30:32;;;;;;;17.90;11.73;;;;;;;;;;5052654;28;20104;-71
2023/10/26 01:32:58;;;;;;;20.23;12.07;;;;;;;;;;5034549;28;20104;-71
2023/10/26 01:35:23;;;;;;;18.60;11.83;;;;;;;;;;5034535;28;20017;-72
2023/10/26 01:37:48;;;;;;;18.90;12.60;;;;;;;;;;5052621;28;20251;-71
2023/10/26 01:40:13;;;;;;;24.45;13.32;;;;;;;;;;5052381;28;20024;-71
2023/10/26 01:42:39;;;;;;;24.42;13.52;;;;;;;;;;5052524;28;20017;-71
2023/10/26 01:45:04;;;;;;;24.20;12.97;;;;;;;;;;5054867;28;20017;-71
2023/10/26 01:47:29;;;;;;;22.05;13.57;;;;;;;;;;5056110;28;20264;-71
2023/10/26 01:49:54;;;;;;;19.60;12.53;;;;;;;;;;5056164;28;20029;-71
2023/10/26 01:52:19;;;;;;;27.52;13.50;;;;;;;;;;5055818;28;20786;-71
2023/10/26 01:54:46;;;;;;;21.83;13.40;;;;;;;;;;5055823;28;20099;-71
2023/10/26 01:57:11;;;;;;;24.75;12.95;;;;;;;;;;5055956;28;20258;-71
2023/10/26 01:59:37;;;;;;;21.77;12.47;;;;;;;;;;5055702;28;20017;-71
2023/10/26 02:02:02;;;;;;;22.25;13.48;;;;;;;;;;5037726;28;20346;-72
2023/10/26 02:04:27;;;;;;;22.42;12.68;;;;;;;;;;5055684;28;20028;-72
2023/10/26 02:06:52;;;;;;;18.43;11.97;;;;;;;;;;5055500;28;20033;-71
2023/10/26 02:09:17;;;;;;;22.77;13.73;;;;;;;;;;5055739;28;20750;-71
2023/10/26 02:11:42;;;;;;;23.00;13.67;;;;;;;;;;5055476;28;20263;-71
2023/10/26 02:14:08;;;;;;;20.43;13.07;;;;;;;;;;5055473;28;20803;-71
2023/10/26 02:16:33;;;;;;;27.05;12.60;;;;;;;;;;5055430;28;20299;-70
2023/10/26 02:18:58;;;;;;;20.10;13.17;;;;;;;;;;5037477;28;20021;-71
2023/10/26 02:21:23;;;;;;;22.35;13.70;;;;;;;;;;5055232;28;20255;-72
2023/10/26 02:23:48;;;;;;;22.43;14.73;;;;;;;;;;5055366;28;20025;-70
2023/10/26 02:26:14;;;;;;;30.63;15.40;;;;;;;;;;5055287;28;20267;-71
2023/10/26 02:28:39;;;;;;;24.47;13.57;;;;;;;;;;5055217;28;20099;-71
2023/10/26 02:31:04;;;;;;;81.37;16.90;;;;;;;;;;5055190;28;20373;-71
2023/10/26 02:33:29;;;;;;;62.22;16.75;;;;;;;;;;5055093;28;20283;-71
2023/10/26 02:35:54;;;;;;;47.70;16.33;;;;;;;;;;5055083;28;20017;-71
2023/10/26 02:38:19;;;;;;;71.70;17.63;;;;;;;;;;5054892;28;20287;-71
2023/10/26 02:40:45;;;;;;;202.53;18.70;;;;;;;;;;5037295;28;20259;-71
2023/10/26 02:43:10;;;;;;;124.70;16.07;;;;;;;;;;5054773;28;20274;-71
2023/10/26 02:45:35;;;;;;;211.98;19.42;;;;;;;;;;5054896;28;20377;-71
2023/10/26 02:48:02;;;;;;;136.37;17.90;;;;;;;;;;5054838;28;20478;-71
2023/10/26 02:50:28;;;;;;;93.13;15.73;;;;;;;;;;5054759;28;20293;-71
2023/10/26 02:52:53;;;;;;;237.77;19.50;;;;;;;;;;5054607;28;20052;-71
2023/10/26 02:55:18;;;;;;;160.37;17.37;;;;;;;;;;5053982;28;20457;-71
2023/10/26 02:57:43;;;;;;;268.73;19.33;;;;;;;;;;5036702;28;20317;-71
2023/10/26 03:00:09;;;;;;;207.10;19.05;;;;;;;;;;5054682;28;20013;-71
2023/10/26 03:02:34;;;;;;;179.90;20.05;;;;;;;;;;5054807;28;20021;-72
2023/10/26 03:05:00;;;;;;;153.43;16.08;;;;;;;;;;5054583;28;20465;-72
2023/10/26 03:07:25;;;;;;;102.40;15.45;;;;;;;;;;5054525;28;20032;-71
2023/10/26 03:09:51;;;;;;;130.17;16.10;;;;;;;;;;5054470;28;20024;-72
2023/10/26 03:12:17;;;;;;;77.20;14.77;;;;;;;;;;5054144;28;20451;-72
2023/10/26 03:14:42;;;;;;;85.20;14.65;;;;;;;;;;5054437;28;20033;-72
2023/10/26 03:17:07;;;;;;;55.10;14.50;;;;;;;;;;5054343;28;20028;-72
2023/10/26 03:19:33;;;;;;;88.78;15.20;;;;;;;;;;5054125;28;20280;-71
2023/10/26 03:21:58;;;;;;;79.85;15.30;;;;;;;;;;5054286;28;20084;-72
2023/10/26 03:24:24;;;;;;;47.13;14.80;;;;;;;;;;5054322;28;20041;-71
2023/10/26 03:26:49;;;;;;;31.35;14.70;;;;;;;;;;5036187;28;20024;-71
2023/10/26 03:29:14;;;;;;;75.13;16.73;;;;;;;;;;5054279;28;20070;-72
2023/10/26 03:31:41;;;;;;;40.33;15.30;;;;;;;;;;5054073;28;20258;-72
2023/10/26 03:34:06;;;;;;;34.13;14.40;;;;;;;;;;5054001;28;20350;-71
2023/10/26 03:36:31;;;;;;;29.35;14.45;;;;;;;;;;5053907;28;20524;-72
2023/10/26 03:38:57;;;;;;;39.17;15.00;;;;;;;;;;5053808;28;20381;-72
2023/10/26 03:41:22;;;;;;;28.35;14.07;;;;;;;;;;5053746;28;20017;-72
2023/10/26 03:43:47;;;;;;;27.50;14.80;;;;;;;;;;5053781;28;20040;-72
2023/10/26 03:46:13;;;;;;;29.67;15.23;;;;;;;;;;5053820;28;20086;-71
2023/10/26 03:48:38;;;;;;;34.30;14.93;;;;;;;;;;5053975;28;20268;-72
2023/10/26 03:51:03;;;;;;;27.38;15.38;;;;;;;;;;5053592;28;20542;-72
2023/10/26 03:53:29;;;;;;;24.80;15.57;;;;;;;;;;5053483;28;20025;-71
2023/10/26 03:55:55;;;;;;;29.55;15.00;;;;;;;;;;5053596;28;20048;-72
2023/10/26 03:58:20;;;;;;;25.05;14.77;;;;;;;;;;5053476;28;20044;-72
2023/10/26 04:00:47;;;;;;;23.90;15.20;;;;;;;;;;5053547;28;20412;-72
2023/10/26 04:03:12;;;;;;;23.42;14.80;;;;;;;;;;5053581;28;20348;-72
2023/10/26 04:05:37;;;;;;;26.70;15.13;;;;;;;;;;5053557;28;20045;-72
2023/10/26 04:08:04;;;;;;;25.43;15.10;;;;;;;;;;5053322;28;20379;-71
2023/10/26 04:10:29;;;;;;;26.73;14.27;;;;;;;;;;5053310;28;20264;-72
2023/10/26 04:12:54;;;;;;;28.23;15.68;;;;;;;;;;5053101;28;20094;-72
2023/10/26 04:15:20;;;;;;;25.20;15.53;;;;;;;;;;5053430;28;20155;-72
2023/10/26 04:17:45;;;;;;;31.00;15.50;;;;;;;;;;5053249;28;20643;-72
2023/10/26 04:20:10;;;;;;;47.93;16.07;;;;;;;;;;5035381;28;20020;-72
2023/10/26 04:22:35;;;;;;;38.15;16.25;;;;;;;;;;5053044;28;20312;-71
2023/10/26 04:25:01;;;;;;;34.63;15.37;;;;;;;;;;5053456;28;20021;-72
2023/10/26 04:27:26;;;;;;;51.17;16.70;;;;;;;;;;5053240;28;20267;-72
2023/10/26 04:29:51;;;;;;;50.23;16.80;;;;;;;;;;5053129;28;20021;-72
2023/10/26 04:32:16;;;;;;;117.30;19.15;;;;;;;;;;5053088;28;20290;-72
2023/10/26 04:34:43;;;;;;;110.60;17.23;;;;;;;;;;5053112;28;20480;-72
2023/10/26 04:37:09;;;;;;;86.75;16.77;;;;;;;;;;5053090;28;20020;-71
2023/10/26 04:39:34;;;;;;;97.28;17.52;;;;;;;;;;5053109;28;20017;-72
2023/10/26 04:41:59;;;;;;;127.32;18.35;;;;;;;;;;5035171;28;20111;-71
2023/10/26 04:44:24;;;;;;;83.90;17.60;;;;;;;;;;5052978;28;20460;-71
2023/10/26 04:46:49;;;;;;;199.50;19.57;;;;;;;;;;5052863;28;20096;-71
2023/10/26 04:49:15;;;;;;;121.78;15.90;;;;;;;;;;5035045;28;20013;-71
2023/10/26 04:51:40;;;;;;;192.23;22.07;;;;;;;;;;5052902;28;20024;-71
2023/10/26 04:54:05;;;;;;;199.70;17.53;;;;;;;;;;5052895;28;20283;-71
2023/10/26 04:56:30;;;;;;;131.02;18.80;;;;;;;;;;5052764;28;20333;-71
2023/10/26 04:58:55;;;;;;;150.47;17.63;;;;;;;;;;5052883;28;20096;-71
2023/10/26 05:01:21;;;;;;;140.97;16.70;;;;;;;;;;5052860;28;20256;-72
2023/10/26 05:03:46;;;;;;;228.60;19.02;;;;;;;;;;5053021;28;20264;-71
2023/10/26 05:06:11;;;;;;;167.73;17.03;;;;;;;;;;5034905;28;20036;-72
2023/10/26 05:08:36;;;;;;;123.03;19.40;;;;;;;;;;5052748;28;20623;-72
2023/10/26 05:11:01;;;;;;;214.17;19.93;;;;;;;;;;5052840;28;20361;-72
2023/10/26 05:13:28;;;;;;;124.67;16.87;;;;;;;;;;5052473;28;20296;-72
2023/10/26 05:15:53;;;;;;;120.63;16.55;;;;;;;;;;5052568;28;20317;-73
2023/10/26 05:18:18;;;;;;;109.20;16.50;;;;;;;;;;5052706;28;20427;-72
2023/10/26 05:20:49;;;;;;;284.37;20.33;;;;;;;;;;5056431;28;20287;-72
2023/10/26 05:23:15;;;;;;;243.30;19.30;;;;;;;;;;5056478;28;20299;-71
2023/10/26 05:25:40;;;;;;;131.85;17.08;;;;;;;;;;5056536;28;20396;-71
2023/10/26 05:28:05;;;;;;;222.67;18.20;;;;;;;;;;5056547;28;20472;-71
2023/10/26 05:30:30;;;;;;;147.50;17.07;;;;;;;;;;5056191;28;20261;-71
2023/10/26 05:32:55;;;;;;;152.38;18.00;;;;;;;;;;5056177;28;20812;-71
2023/10/26 05:35:21;;;;;;;146.73;16.57;;;;;;;;;;5056452;28;20032;-71
2023/10/26 05:37:46;;;;;;;98.93;17.23;;;;;;;;;;5056126;28;20806;-71
2023/10/26 05:40:11;;;;;;;144.20;15.40;;;;;;;;;;5056020;28;20028;-72
2023/10/26 05:42:37;;;;;;;107.63;15.23;;;;;;;;;;5056332;28;20739;-71
2023/10/26 05:45:02;;;;;;;119.38;14.57;;;;;;;;;;5038259;28;20017;-72
2023/10/26 05:47:27;;;;;;;96.85;15.68;;;;;;;;;;5056032;28;20025;-72
2023/10/26 05:49:54;;;;;;;85.93;15.23;;;;;;;;;;5056159;28;20108;-72
2023/10/26 05:52:19;;;;;;;157.95;16.95;;;;;;;;;;5055921;28;20643;-72
2023/10/26 05:54:44;;;;;;;171.20;16.77;;;;;;;;;;5055927;28;20020;-72
2023/10/26 05:57:10;;;;;;;153.30;15.40;;;;;;;;;;5038255;28;20329;-72
2023/10/26 05:59:35;;;;;;;104.87;15.30;;;;;;;;;;5055999;28;20025;-72
2023/10/26 06:02:00;;;;;;;156.00;16.30;;;;;;;;;;5055866;28;20259;-72
2023/10/26 06:04:26;;;;;;;157.83;16.90;;;;;;;;;;5055901;28;20262;-72
2023/10/26 06:06:51;;;;;;;119.95;16.33;;;;;;;;;;5055648;28;20747;-72
2023/10/26 06:09:16;;;;;;;147.30;14.93;;;;;;;;;;5055697;28;20021;-72
2023/10/26 06:11:41;;;;;;;85.90;15.85;;;;;;;;;;5055424;28;20476;-72
2023/10/26 06:14:06;;;;;;;124.97;16.47;;;;;;;;;;5055445;28;20029;-72
2023/10/26 06:16:32;;;;;;;109.43;17.55;;;;;;;;;;5055502;28;20346;-72
2023/10/26 06:18:57;;;;;;;170.47;18.33;;;;;;;;;;5037610;28;20175;-72
2023/10/26 06:21:22;;;;;;;129.63;17.33;;;;;;;;;;5055390;28;20263;-72
2023/10/26 06:23:47;;;;;;;104.93;15.47;;;;;;;;;;5037497;28;20833;-72
2023/10/26 06:26:12;;;;;;;134.40;16.98;;;;;;;;;;5055507;28;20267;-71
2023/10/26 06:28:38;;;;;;;147.13;17.00;;;;;;;;;;5055454;28;20029;-71
2023/10/26 06:31:10;;;;;;;148.20;15.65;;;;;;;;;;5054445;28;20380;-71
2023/10/26 06:33:35;;;;;;;172.98;16.25;;;;;;;;;;5055117;28;20025;-71
2023/10/26 06:36:00;;;;;;;264.38;18.48;;;;;;;;;;5055230;28;20020;-71
2023/10/26 06:38:25;;;;;;;181.77;16.83;;;;;;;;;;5037182;28;20013;-71
2023/10/26 06:40:51;;;;;;;166.73;16.37;;;;;;;;;;5055239;28;20255;-71
2023/10/26 06:43:16;;;;;;;147.05;16.63;;;;;;;;;;5054982;28;20743;-71
2023/10/26 06:45:41;;;;;;;226.80;16.98;;;;;;;;;;5055063;28;20086;-72
2023/10/26 06:48:06;;;;;;;131.57;13.60;;;;;;;;;;5054966;28;20040;-71
2023/10/26 06:50:32;;;;;;;153.98;14.13;;;;;;;;;;5055056;28;20812;-71
2023/10/26 06:52:57;;;;;;;203.00;13.43;;;;;;;;;;5037298;28;20119;-71
2023/10/26 06:55:22;;;;;;;122.00;15.82;;;;;;;;;;5054887;28;20013;-71
2023/10/26 06:57:47;;;;;;;221.80;15.70;;;;;;;;;;5054759;28;20480;-71
2023/10/26 07:00:13;;;;;;;212.63;16.23;;;;;;;;;;5054617;28;20331;-71
2023/10/26 07:02:38;;;;;;;203.30;14.10;;;;;;;;;;5054506;28;20267;-71
2023/10/26 07:05:03;;;;;;;209.43;14.73;;;;;;;;;;5054220;28;20522;-71
2023/10/26 07:07:30;;;;;;;200.23;13.55;;;;;;;;;;5053994;28;20255;-71
2023/10/26 07:09:55;;;;;;;187.52;14.77;;;;;;;;;;5053851;28;20043;-70
2023/10/26 07:12:21;;;;;;;198.48;14.02;;;;;;;;;;5053620;28;20056;-71
2023/10/26 07:14:46;;;;;;;140.17;14.33;;;;;;;;;;5053956;28;20473;-71
2023/10/26 07:17:11;;;;;;;137.88;14.20;;;;;;;;;;5053825;28;20263;-72
2023/10/26 07:19:36;;;;;;;71.37;13.67;;;;;;;;;;5053927;28;20103;-71
2023/10/26 07:22:02;;;;;;;210.47;16.30;;;;;;;;;;5054039;28;20260;-71
2023/10/26 07:24:29;;;;;;;146.48;12.98;;;;;;;;;;5054162;28;20812;-70
2023/10/26 07:26:54;;;;;;;132.93;12.57;;;;;;;;;;5054093;28;20017;-71
2023/10/26 07:29:19;;;;;;;128.95;11.27;;;;;;;;;;5054267;28;20379;-71
2023/10/26 07:31:44;;;;;;;141.88;14.25;;;;;;;;;;5054166;28;20492;-71
2023/10/26 07:34:10;;;;;;;163.13;12.27;;;;;;;;;;5036995;28;20089;-72
2023/10/26 07:36:35;;;;;;;104.93;13.77;;;;;;;;;;5036329;28;20028;-71
2023/10/26 07:39:00;;;;;;;151.82;13.40;;;;;;;;;;5035929;28;20025;-72
2023/10/26 07:41:26;;;;;;;148.35;11.77;;;;;;;;;;5053547;28;20009;-72
2023/10/26 07:43:51;;;;;;;137.33;12.77;;;;;;;;;;5035984;28;20444;-72
2023/10/26 07:46:16;;;;;;;158.18;11.68;;;;;;;;;;5053968;28;20263;-73
2023/10/26 07:48:41;;;;;;;129.73;11.47;;;;;;;;;;5053930;28;20033;-71
2023/10/26 07:51:06;;;;;;;108.45;12.60;;;;;;;;;;5036191;28;20328;-71
2023/10/26 07:53:31;;;;;;;121.57;15.13;;;;;;;;;;5053998;28;20487;-72
2023/10/26 07:55:57;;;;;;;75.40;11.80;;;;;;;;;;5054328;28;20264;-72
2023/10/26 07:58:24;;;;;;;104.00;13.13;;;;;;;;;;5054225;28;20244;-70
2023/10/26 08:00:49;;;;;;;93.13;10.75;;;;;;;;;;5054195;28;20036;-71
2023/10/26 08:03:14;;;;;;;156.17;11.57;;;;;;;;;;5054243;28;20024;-70
2023/10/26 08:05:39;;;;;;;110.37;12.47;;;;;;;;;;5054629;28;20321;-72
2023/10/26 08:08:04;;;;;;;73.93;11.47;;;;;;;;;;5053819;28;20344;-71
2023/10/26 08:10:35;;;;;;;69.80;10.80;;;;;;;;;;5054073;28;20469;-71
2023/10/26 08:13:00;;;;;;;110.78;11.10;;;;;;;;;;5054702;28;20446;-71
2023/10/26 08:15:25;;;;;;;72.53;9.80;;;;;;;;;;5054383;28;20023;-71
2023/10/26 08:17:50;;;;;;;59.43;9.63;;;;;;;;;;5054153;28;20278;-71
2023/10/26 08:20:17;;;;;;;63.33;10.77;;;;;;;;;;5054121;28;20306;-71
2023/10/26 08:22:42;;;;;;;64.60;11.27;;;;;;;;;;5056228;28;20401;-70
2023/10/26 08:25:07;;;;;;;75.13;10.50;;;;;;;;;;5069556;28;20017;-71
2023/10/26 08:27:32;;;;;;;31.23;10.25;;;;;;;;;;5055104;28;20287;-72
2023/10/26 08:29:58;;;;;;;51.25;9.75;;;;;;;;;;5073597;28;20005;-72
2023/10/26 08:32:23;;;;;;;56.35;11.75;;;;;;;;;;5074600;28;20005;-72
2023/10/26 08:34:48;;;;;;;99.57;12.47;;;;;;;;;;5057808;28;20092;-72
2023/10/26 08:37:14;;;;;;;41.67;10.20;;;;;;;;;;5076201;28;20254;-71
2023/10/26 08:39:39;;;;;;;76.27;9.97;;;;;;;;;;5076886;28;20036;-71
2023/10/26 08:42:05;;;;;;;92.53;11.10;;;;;;;;;;5077160;28;20032;-71
2023/10/26 08:44:31;;;;;;;32.58;10.52;;;;;;;;;;5077067;28;20077;-72
2023/10/26 08:46:58;;;;;;;34.35;10.93;;;;;;;;;;5077602;28;20033;-72
2023/10/26 08:49:26;;;;;;;61.33;9.15;;;;;;;;;;5077754;28;20032;-71
2023/10/26 08:51:51;;;;;;;27.40;9.93;;;;;;;;;;5077612;28;20077;-70
2023/10/26 08:54:16;;;;;;;33.80;10.13;;;;;;;;;;5079440;28;20040;-71
2023/10/26 08:56:42;;;;;;;59.77;10.80;;;;;;;;;;5082247;28;20394;-72
2023/10/26 08:59:07;;;;;;;33.63;10.10;;;;;;;;;;5081935;28;20278;-72
2023/10/26 09:01:32;;;;;;;23.90;9.60;;;;;;;;;;5081802;28;20036;-71
2023/10/26 09:04:06;;;;;;;23.10;9.98;;;;;;;;;;5070918;28;20029;-72
2023/10/26 09:06:41;;;;;;;24.30;9.73;;;;;;;;;;5063483;28;20035;-72
2023/10/26 09:09:07;;;;;;;71.30;10.15;;;;;;;;;;5044900;28;20077;-72
2023/10/26 09:11:32;;;;;;;26.27;10.20;;;;;;;;;;5061922;28;20048;-72
2023/10/26 09:14:11;;;;;;;24.00;9.10;;;;;;;;;;5039313;28;20402;-71
2023/10/26 09:16:36;;;;;;;26.20;9.52;;;;;;;;;;5039896;28;20762;-71
2023/10/26 09:19:02;;;;;;;19.38;9.63;;;;;;;;;;5039460;28;20017;-72
2023/10/26 09:21:27;;;;;;;19.80;9.60;;;;;;;;;;5038616;28;20092;-71
2023/10/26 09:23:52;;;;;;;31.93;9.17;;;;;;;;;;5037840;28;20025;-72
2023/10/26 09:26:17;;;;;;;28.50;9.40;;;;;;;;;;5039787;28;20279;-71
2023/10/26 09:28:53;;;;;;;22.08;9.68;;;;;;;;;;5039035;28;20713;-72
2023/10/26 09:31:18;;;;;;;19.00;9.60;;;;;;;;;;5038595;28;20036;-72
2023/10/26 09:33:44;;;;;;;14.40;8.93;;;;;;;;;;5038339;28;20373;-72
2023/10/26 09:36:11;;;;;;;13.55;9.13;;;;;;;;;;5039454;28;20028;-73
2023/10/26 09:38:36;;;;;;;15.68;8.80;;;;;;;;;;5038941;28;20096;-72
2023/10/26 09:41:04;;;;;;;16.90;9.00;;;;;;;;;;5039580;28;20049;-71
2023/10/26 09:43:29;;;;;;;15.15;9.32;;;;;;;;;;5036297;28;20017;-72
2023/10/26 09:45:55;;;;;;;18.00;9.48;;;;;;;;;;5035126;28;20380;-72
2023/10/26 09:48:20;;;;;;;17.70;9.25;;;;;;;;;;5036412;28;20026;-71
2023/10/26 09:50:46;;;;;;;15.70;8.93;;;;;;;;;;5036351;28;20097;-71
2023/10/26 09:53:12;;;;;;;14.15;9.30;;;;;;;;;;5036084;28;20052;-71
2023/10/26 09:55:37;;;;;;;16.17;9.60;;;;;;;;;;5036140;28;20021;-71
2023/10/26 09:58:04;;;;;;;14.15;9.25;;;;;;;;;;5034837;28;20014;-72
2023/10/26 10:00:31;;;;;;;14.90;9.85;;;;;;;;;;5036019;28;20077;-71
2023/10/26 10:03:12;;;;;;;14.05;9.70;;;;;;;;;;5036135;28;20018;-72
2023/10/26 10:05:38;;;;;;;16.98;9.75;;;;;;;;;;5035752;28;20017;-72
2023/10/26 10:08:04;;;;;;;13.68;8.93;;;;;;;;;;5034814;28;20033;-72
2023/10/26 10:10:29;;;;;;;13.05;9.70;;;;;;;;;;5035148;28;20112;-72
2023/10/26 10:12:54;;;;;;;14.52;9.45;;;;;;;;;;5044819;28;20044;-72
2023/10/26 10:15:32;;;;;;;14.85;9.82;;;;;;;;;;5055786;28;20027;-72
2023/10/26 10:17:57;;;;;;;13.65;10.02;;;;;;;;;;5055573;28;20048;-73
2023/10/26 10:20:22;;;;;;;12.85;9.70;;;;;;;;;;5038762;28;20102;-72
2023/10/26 10:22:47;;;;;;;14.82;9.88;;;;;;;;;;5055815;28;20013;-73
2023/10/26 10:25:13;;;;;;;14.10;10.00;;;;;;;;;;5055677;28;20021;-73
2023/10/26 10:27:40;;;;;;;17.15;10.32;;;;;;;;;;5055538;28;20074;-73
2023/10/26 10:30:09;;;;;;;12.80;9.13;;;;;;;;;;5055211;28;20025;-73
2023/10/26 10:32:43;;;;;;;11.15;8.77;;;;;;;;;;5055322;28;20450;-73
2023/10/26 10:35:13;;;;;;;13.48;9.55;;;;;;;;;;5055517;28;20028;-72
2023/10/26 10:37:38;;;;;;;13.13;9.30;;;;;;;;;;5055247;28;20096;-73
2023/10/26 10:40:06;;;;;;;12.65;9.68;;;;;;;;;;5054986;28;20052;-72
2023/10/26 10:42:32;;;;;;;13.00;9.38;;;;;;;;;;5055441;28;20035;-72
2023/10/26 10:44:57;;;;;;;12.48;8.75;;;;;;;;;;5055405;28;20045;-72
2023/10/26 10:47:26;;;;;;;10.52;7.93;;;;;;;;;;5055151;28;20013;-72
2023/10/26 10:49:52;;;;;;;11.68;8.68;;;;;;;;;;5056178;28;20067;-72
2023/10/26 10:52:17;;;;;;;14.83;8.80;;;;;;;;;;5056909;28;20036;-72
2023/10/26 10:54:47;;;;;;;12.20;8.60;;;;;;;;;;5055217;28;20021;-72
2023/10/26 10:57:12;;;;;;;13.73;9.27;;;;;;;;;;5054757;28;20028;-73
2023/10/26 10:59:37;;;;;;;11.43;9.00;;;;;;;;;;5054807;28;20021;-70
2023/10/26 11:02:07;;;;;;;12.93;9.07;;;;;;;;;;5054781;28;20291;-72
2023/10/26 11:04:32;;;;;;;12.40;8.88;;;;;;;;;;5054741;28;20473;-71
2023/10/26 11:06:57;;;;;;;11.00;8.88;;;;;;;;;;5037566;28;20122;-72
2023/10/26 11:09:23;;;;;;;9.07;7.77;;;;;;;;;;5054717;28;20464;-72
2023/10/26 11:11:48;;;;;;;14.73;8.10;;;;;;;;;;5054805;28;20013;-71
2023/10/26 11:14:14;;;;;;;11.43;8.00;;;;;;;;;;5039011;28;20104;-72
2023/10/26 11:16:42;;;;;;;10.75;7.82;;;;;;;;;;5036086;28;20021;-72
2023/10/26 11:19:07;;;;;;;10.27;8.57;;;;;;;;;;5054506;28;20439;-72
2023/10/26 11:21:32;;;;;;;11.27;8.83;;;;;;;;;;5055266;28;20068;-72
2023/10/26 11:23:58;;;;;;;11.23;7.60;;;;;;;;;;5054875;28;20139;-71
2023/10/26 11:26:23;;;;;;;10.68;8.00;;;;;;;;;;5054251;28;20267;-71
2023/10/26 11:28:48;;;;;;;12.13;8.60;;;;;;;;;;5036633;28;20028;-72
2023/10/26 11:31:14;;;;;;;9.93;8.10;;;;;;;;;;5054241;28;20059;-72
2023/10/26 11:33:39;;;;;;;9.65;7.72;;;;;;;;;;5036302;28;20384;-72
2023/10/26 11:36:09;;;;;;;10.80;8.45;;;;;;;;;;5054012;28;20021;-72
2023/10/26 11:38:34;;;;;;;12.05;7.68;;;;;;;;;;5054086;28;20029;-73
2023/10/26 11:41:00;;;;;;;10.80;8.00;;;;;;;;;;5053980;28;20036;-71
2023/10/26 11:43:32;;;;;;;11.25;8.52;;;;;;;;;;5053945;28;20017;-71
2023/10/26 11:45:59;;;;;;;10.00;7.95;;;;;;;;;;5054002;28;20035;-72
2023/10/26 11:48:27;;;;;;;11.43;8.70;;;;;;;;;;5054883;28;20464;-72
2023/10/26 11:50:52;;;;;;;9.93;7.80;;;;;;;;;;5054802;28;20031;-72
2023/10/26 11:53:18;;;;;;;10.02;7.93;;;;;;;;;;5053805;28;20103;-73
2023/10/26 11:55:43;;;;;;;12.47;7.60;;;;;;;;;;5053824;28;20024;-72
2023/10/26 11:58:08;;;;;;;8.33;7.37;;;;;;;;;;5053946;28;20071;-72
2023/10/26 12:00:33;;;;;;;9.95;7.28;;;;;;;;;;5054960;28;20468;-72
2023/10/26 12:02:59;;;;;;;8.23;6.90;;;;;;;;;;5055261;28;20056;-72
2023/10/26 12:05:25;;;;;;;13.00;7.60;;;;;;;;;;5053801;28;20073;-72
2023/10/26 12:07:50;;;;;;;10.05;8.13;;;;;;;;;;5053679;28;20074;-72
2023/10/26 12:10:17;;;;;;;11.18;8.20;;;;;;;;;;5053301;28;20021;-72
2023/10/26 12:12:43;;;;;;;12.55;8.30;;;;;;;;;;5052611;28;20048;-71
2023/10/26 12:15:08;;;;;;;12.45;9.30;;;;;;;;;;5053424;28;20028;-71
2023/10/26 12:17:33;;;;;;;11.70;9.27;;;;;;;;;;5053204;28;20553;-72
2023/10/26 12:19:59;;;;;;;12.75;9.63;;;;;;;;;;5051811;28;20066;-72
2023/10/26 12:22:24;;;;;;;13.27;10.10;;;;;;;;;;5054402;28;20070;-72
2023/10/26 12:24:49;;;;;;;13.50;9.48;;;;;;;;;;5053383;28;20100;-72
2023/10/26 12:27:16;;;;;;;13.93;10.10;;;;;;;;;;5053147;28;20049;-71
2023/10/26 12:29:44;;;;;;;15.45;9.85;;;;;;;;;;5053285;28;20079;-71
2023/10/26 12:32:10;;;;;;;15.70;10.52;;;;;;;;;;5053136;28;20021;-72
2023/10/26 12:34:35;;;;;;;17.17;10.63;;;;;;;;;;5053204;28;20017;-71
2023/10/26 12:37:00;;;;;;;16.23;10.98;;;;;;;;;;5035358;28;20047;-72
2023/10/26 12:39:26;;;;;;;20.83;10.93;;;;;;;;;;5053040;28;20147;-72
2023/10/26 12:41:51;;;;;;;17.33;11.30;;;;;;;;;;5053396;28;20465;-71
2023/10/26 12:44:20;;;;;;;15.17;10.60;;;;;;;;;;5053649;28;20103;-72
2023/10/26 12:46:45;;;;;;;16.67;10.82;;;;;;;;;;5055179;28;20094;-70
2023/10/26 12:49:10;;;;;;;16.38;10.48;;;;;;;;;;5054243;28;20025;-72
2023/10/26 12:51:35;;;;;;;17.73;11.60;;;;;;;;;;5054060;28;20021;-72
2023/10/26 12:54:00;;;;;;;17.80;11.53;;;;;;;;;;5038275;28;20021;-72
2023/10/26 12:56:26;;;;;;;16.47;11.10;;;;;;;;;;5054430;28;20028;-72
2023/10/26 12:58:51;;;;;;;16.13;10.70;;;;;;;;;;5037227;28;20278;-72
2023/10/26 13:01:16;;;;;;;18.10;10.73;;;;;;;;;;5054891;28;20262;-72
2023/10/26 13:03:41;;;;;;;15.93;10.80;;;;;;;;;;5053349;28;20316;-72
2023/10/26 13:06:06;;;;;;;15.55;10.55;;;;;;;;;;5054018;28;20017;-71
2023/10/26 13:08:31;;;;;;;20.43;11.33;;;;;;;;;;5053427;28;20040;-72
2023/10/26 13:10:57;;;;;;;16.67;11.03;;;;;;;;;;5053208;28;20382;-72
2023/10/26 13:13:22;;;;;;;19.98;11.80;;;;;;;;;;5052538;28;20045;-72
2023/10/26 13:15:47;;;;;;;19.42;11.27;;;;;;;;;;5053301;28;20538;-71
2023/10/26 13:18:12;;;;;;;15.70;11.00;;;;;;;;;;5052957;28;20017;-71
2023/10/26 13:20:37;;;;;;;19.97;10.90;;;;;;;;;;5053093;28;20067;-72
2023/10/26 13:23:03;;;;;;;16.60;10.77;;;;;;;;;;5052648;28;20471;-71
2023/10/26 13:25:29;;;;;;;16.30;10.30;;;;;;;;;;5034864;28;20443;-70
2023/10/26 13:27:54;;;;;;;18.10;11.23;;;;;;;;;;5052793;28;20255;-71
2023/10/26 13:30:20;;;;;;;16.42;11.25;;;;;;;;;;5052684;28;20533;-71
2023/10/26 13:32:45;;;;;;;16.02;11.10;;;;;;;;;;5034714;28;20021;-71
2023/10/26 13:35:11;;;;;;;19.83;11.43;;;;;;;;;;5052413;28;20025;-72
2023/10/26 13:37:36;;;;;;;15.35;10.75;;;;;;;;;;5052306;28;20295;-72
2023/10/26 13:40:01;;;;;;;16.15;11.07;;;;;;;;;;5053572;28;20021;-72
2023/10/26 13:42:27;;;;;;;16.90;10.93;;;;;;;;;;5038346;28;20487;-72
2023/10/26 13:44:52;;;;;;;16.80;10.87;;;;;;;;;;5058172;28;20021;-72
2023/10/26 13:47:17;;;;;;;15.05;10.38;;;;;;;;;;5056287;28;20675;-72
2023/10/26 13:49:42;;;;;;;20.13;10.57;;;;;;;;;;5056110;28;20052;-72
2023/10/26 13:52:08;;;;;;;18.25;11.00;;;;;;;;;;5055925;28;20271;-72
2023/10/26 13:54:33;;;;;;;17.45;10.88;;;;;;;;;;5055989;28;20070;-72
2023/10/26 13:56:58;;;;;;;16.70;11.00;;;;;;;;;;5056243;28;20512;-73
2023/10/26 13:59:24;;;;;;;18.38;11.43;;;;;;;;;;5055959;28;20275;-72
2023/10/26 14:01:49;;;;;;;16.65;10.77;;;;;;;;;;5055776;28;20350;-72
2023/10/26 14:04:14;;;;;;;17.37;10.40;;;;;;;;;;5055572;28;20472;-72
2023/10/26 14:06:39;;;;;;;19.52;10.73;;;;;;;;;;5055860;28;20052;-72